Time;durP1;ratioP1;P1;durP2;ratioP2;P2;SDS_P1;SDS_P2;PMS_P1;PMS_P2;Temp;Humidity;BMP_temperature;BMP_pressure;BME280_temperature;BME280_humidity;BME280_pressure;Samples;Min_cycle;Max_cycle;Signal;HPM_P1;HPM_P2
2023/05/29 00:01:21;;;;;;;142.18;135.32;;;8.00;99.90;;;;;;4986427;28;20498;-76
2023/05/29 00:03:47;;;;;;;144.65;137.57;;;7.90;99.90;;;;;;4986958;28;20064;-76
2023/05/29 00:06:13;;;;;;;147.27;140.05;;;7.90;99.90;;;;;;4985404;28;20125;-76
2023/05/29 00:08:39;;;;;;;151.05;143.48;;;7.90;99.90;;;;;;4986807;28;20508;-76
2023/05/29 00:11:04;;;;;;;155.13;147.50;;;7.90;99.90;;;;;;4984413;28;20128;-76
2023/05/29 00:13:30;;;;;;;154.10;147.20;;;7.90;99.90;;;;;;4985949;28;20169;-76
2023/05/29 00:15:56;;;;;;;169.93;162.07;;;7.80;99.90;;;;;;4985313;28;20050;-76
2023/05/29 00:18:22;;;;;;;163.57;155.75;;;7.80;99.90;;;;;;4970278;28;20042;-76
2023/05/29 00:20:47;;;;;;;169.98;161.93;;;7.80;99.90;;;;;;4985910;28;20049;-76
2023/05/29 00:23:13;;;;;;;179.20;170.55;;;7.80;99.90;;;;;;4985279;28;20050;-76
2023/05/29 00:25:40;;;;;;;180.35;171.88;;;7.80;99.90;;;;;;4986707;28;20049;-76
2023/05/29 00:28:07;;;;;;;179.15;171.07;;;7.70;99.90;;;;;;4985477;28;20493;-76
2023/05/29 00:30:32;;;;;;;181.50;172.57;;;7.70;99.90;;;;;;4968602;28;20497;-76
2023/05/29 00:32:58;;;;;;;191.75;182.70;;;7.70;99.90;;;;;;4985626;28;20038;-76
2023/05/29 00:35:24;;;;;;;201.75;192.35;;;7.60;99.90;;;;;;4969346;28;21226;-76
2023/05/29 00:37:49;;;;;;;208.68;199.18;;;7.60;99.90;;;;;;4986525;28;20129;-76
2023/05/29 00:40:15;;;;;;;206.40;197.07;;;7.50;99.90;;;;;;4985485;28;20125;-76
2023/05/29 00:42:42;;;;;;;226.45;216.38;;;7.50;99.90;;;;;;4985888;28;20065;-76
2023/05/29 00:45:08;;;;;;;225.60;215.18;;;7.40;99.90;;;;;;4984510;28;20136;-76
2023/05/29 00:47:33;;;;;;;229.40;218.82;;;7.30;99.90;;;;;;4985576;28;20624;-77
2023/05/29 00:50:01;;;;;;;245.90;234.48;;;7.30;99.90;;;;;;4985866;28;20042;-76
2023/05/29 00:52:27;;;;;;;250.20;239.00;;;7.20;99.90;;;;;;4985021;28;20088;-76
2023/05/29 00:54:54;;;;;;;240.75;229.80;;;7.10;99.90;;;;;;4986303;28;20479;-76
2023/05/29 00:57:20;;;;;;;261.20;249.65;;;7.10;99.90;;;;;;4988662;28;20046;-76
2023/05/29 00:59:47;;;;;;;254.90;243.75;;;7.00;99.90;;;;;;4986804;28;20035;-76
2023/05/29 01:02:14;;;;;;;258.88;247.30;;;7.00;99.90;;;;;;4973720;28;20155;-75
2023/05/29 01:04:39;;;;;;;265.88;254.05;;;7.00;99.90;;;;;;4971695;28;20042;-75
2023/05/29 01:07:06;;;;;;;260.70;249.23;;;6.90;99.90;;;;;;4973660;28;20042;-75
2023/05/29 01:09:34;;;;;;;272.63;260.52;;;6.90;99.90;;;;;;4980272;28;20202;-75
2023/05/29 01:12:25;;;;;;;272.10;259.50;;;6.90;99.90;;;;;;4972794;28;20046;-76
2023/05/29 01:15:17;;;;;;;265.00;253.02;;;6.90;99.90;;;;;;4985235;28;20034;-75
2023/05/29 01:17:49;;;;;;;269.52;256.85;;;6.90;99.90;;;;;;4988573;28;20048;-76
2023/05/29 01:20:41;;;;;;;273.88;261.67;;;6.90;99.90;;;;;;4978479;28;20436;-76
2023/05/29 01:23:38;;;;;;;286.15;273.17;;;6.90;99.90;;;;;;4989580;28;20038;-75
2023/05/29 01:26:45;;;;;;;292.10;278.98;;;6.90;99.90;;;;;;4988321;28;20046;-75
2023/05/29 01:29:15;;;;;;;302.38;289.05;;;6.90;99.90;;;;;;4988797;28;20056;-75
2023/05/29 01:31:42;;;;;;;284.38;271.63;;;6.90;99.90;;;;;;4988748;28;20042;-76
2023/05/29 01:34:08;;;;;;;281.55;268.88;;;6.90;99.90;;;;;;4989169;28;20046;-76
2023/05/29 01:36:33;;;;;;;291.15;278.13;;;7.00;99.90;;;;;;4989993;28;20089;-75
2023/05/29 01:39:00;;;;;;;295.40;282.02;;;6.90;99.90;;;;;;4973023;28;20450;-75
2023/05/29 01:41:26;;;;;;;309.75;295.05;;;6.90;99.90;;;;;;4988093;28;20097;-76
2023/05/29 01:43:53;;;;;;;299.15;285.58;;;6.90;99.90;;;;;;4972518;28;20052;-76
2023/05/29 01:46:20;;;;;;;289.35;277.08;;;6.90;99.90;;;;;;4987827;28;20054;-76
2023/05/29 01:48:46;;;;;;;295.35;281.85;;;6.90;99.90;;;;;;4987791;28;20391;-76
2023/05/29 01:51:13;;;;;;;279.95;268.08;;;6.90;99.90;;;;;;4970898;28;20042;-76
2023/05/29 01:53:42;;;;;;;280.50;268.45;;;6.90;99.90;;;;;;4988900;28;20030;-75
2023/05/29 01:56:09;;;;;;;286.42;273.67;;;6.90;99.90;;;;;;4988736;28;20561;-76
2023/05/29 01:58:36;;;;;;;274.75;262.65;;;6.90;99.90;;;;;;4987725;28;20056;-76
2023/05/29 02:01:03;;;;;;;273.75;261.83;;;6.80;99.90;;;;;;4988625;28;20053;-77
2023/05/29 02:03:29;;;;;;;280.25;267.08;;;6.90;99.90;;;;;;4986948;28;20057;-76
2023/05/29 02:05:58;;;;;;;284.63;271.83;;;6.90;99.90;;;;;;4987844;28;20046;-76
2023/05/29 02:08:23;;;;;;;270.40;258.48;;;6.90;99.90;;;;;;4988217;28;20046;-76
2023/05/29 02:10:49;;;;;;;273.35;261.40;;;6.90;99.90;;;;;;4986796;28;20038;-75
2023/05/29 02:13:15;;;;;;;263.23;251.52;;;7.00;99.90;;;;;;4989019;28;20089;-75
2023/05/29 02:15:40;;;;;;;257.13;245.73;;;7.00;99.90;;;;;;4987576;28;20084;-75
2023/05/29 02:18:11;;;;;;;258.88;247.25;;;7.00;99.90;;;;;;4991552;28;20044;-75
2023/05/29 02:20:38;;;;;;;245.45;234.75;;;7.00;99.90;;;;;;4988845;28;20490;-76
2023/05/29 02:23:03;;;;;;;250.68;239.10;;;7.00;99.90;;;;;;4988115;28;20053;-76
2023/05/29 02:25:29;;;;;;;257.95;246.15;;;7.00;99.90;;;;;;4984040;28;20046;-75
2023/05/29 02:27:54;;;;;;;244.55;233.05;;;7.00;99.90;;;;;;4987548;28;20070;-76
2023/05/29 02:30:20;;;;;;;257.55;246.13;;;6.90;99.90;;;;;;4986818;28;20472;-76
2023/05/29 02:32:46;;;;;;;269.60;257.58;;;6.90;99.90;;;;;;4987929;28;20046;-75
2023/05/29 02:35:14;;;;;;;285.95;272.92;;;6.80;99.90;;;;;;4985140;28;20564;-76
2023/05/29 02:37:41;;;;;;;275.35;262.08;;;6.70;99.90;;;;;;4969610;28;20388;-75
2023/05/29 02:40:08;;;;;;;285.42;272.08;;;6.80;99.90;;;;;;4971638;28;20061;-75
2023/05/29 02:42:34;;;;;;;291.60;278.35;;;6.70;99.90;;;;;;4986666;28;20448;-75
2023/05/29 02:44:59;;;;;;;284.73;272.10;;;6.70;99.90;;;;;;4987688;28;20042;-76
2023/05/29 02:47:25;;;;;;;280.55;268.08;;;6.70;99.90;;;;;;4987732;28;20050;-75
2023/05/29 02:49:51;;;;;;;276.38;263.50;;;6.70;99.90;;;;;;4987058;28;20501;-75
2023/05/29 02:52:16;;;;;;;274.33;261.73;;;6.70;99.90;;;;;;4987047;28;20046;-75
2023/05/29 02:54:42;;;;;;;270.10;257.65;;;6.80;99.90;;;;;;4988049;28;20483;-75
2023/05/29 02:57:08;;;;;;;274.80;262.67;;;6.80;99.90;;;;;;4987538;28;20045;-75
2023/05/29 02:59:33;;;;;;;276.15;264.00;;;6.80;99.90;;;;;;4969982;28;20050;-76
2023/05/29 03:01:59;;;;;;;263.48;252.30;;;6.80;99.90;;;;;;4971639;28;20409;-76
2023/05/29 03:04:25;;;;;;;272.88;260.27;;;6.80;99.90;;;;;;4987366;28;20042;-76
2023/05/29 03:06:52;;;;;;;263.13;251.90;;;6.70;99.90;;;;;;4971151;28;20044;-75
2023/05/29 03:09:18;;;;;;;265.75;253.57;;;6.70;99.90;;;;;;4988450;28;20054;-75
2023/05/29 03:11:44;;;;;;;274.10;261.77;;;6.70;99.90;;;;;;4987039;28;20046;-76
2023/05/29 03:14:10;;;;;;;276.58;264.50;;;6.60;99.90;;;;;;4986617;28;20137;-76
2023/05/29 03:16:38;;;;;;;282.48;269.33;;;6.60;99.90;;;;;;4986654;28;20042;-75
2023/05/29 03:19:03;;;;;;;269.75;257.42;;;6.70;99.90;;;;;;4986839;28;20038;-75
2023/05/29 03:21:31;;;;;;;258.30;247.18;;;6.80;99.90;;;;;;4971801;28;20490;-75
2023/05/29 03:23:56;;;;;;;242.70;231.75;;;6.90;99.90;;;;;;4987151;28;20046;-75
2023/05/29 03:26:22;;;;;;;230.30;219.73;;;7.00;99.90;;;;;;4987867;28;20074;-75
2023/05/29 03:28:47;;;;;;;224.35;214.13;;;7.10;99.90;;;;;;4985282;28;20046;-76
2023/05/29 03:31:13;;;;;;;200.98;192.00;;;7.20;99.90;;;;;;4970343;28;20548;-76
2023/05/29 03:33:39;;;;;;;189.25;180.77;;;7.30;99.90;;;;;;4986843;28;20034;-75
2023/05/29 03:36:05;;;;;;;181.13;172.75;;;7.50;99.90;;;;;;4969908;28;20399;-76
2023/05/29 03:38:30;;;;;;;162.25;154.60;;;7.60;99.90;;;;;;4989630;28;20037;-75
2023/05/29 03:40:56;;;;;;;143.40;136.55;;;7.80;99.90;;;;;;4987451;28;20042;-76
2023/05/29 03:43:21;;;;;;;129.98;123.68;;;7.90;99.90;;;;;;4986096;28;20042;-76
2023/05/29 03:45:47;;;;;;;121.97;115.72;;;8.10;99.90;;;;;;4986106;28;20042;-76
2023/05/29 03:48:14;;;;;;;113.50;107.82;;;8.20;99.90;;;;;;4987113;28;20077;-76
2023/05/29 03:50:39;;;;;;;112.38;106.93;;;8.30;99.90;;;;;;4984496;28;20459;-76
2023/05/29 03:53:05;;;;;;;106.25;100.57;;;8.40;99.90;;;;;;4986794;28;20074;-75
2023/05/29 03:55:31;;;;;;;107.93;102.25;;;8.50;99.90;;;;;;4987537;28;20121;-75
2023/05/29 03:57:57;;;;;;;95.78;90.85;;;8.60;99.90;;;;;;4986605;28;20031;-75
2023/05/29 04:00:22;;;;;;;95.60;90.60;;;8.60;99.90;;;;;;4985317;28;20049;-76
2023/05/29 04:02:48;;;;;;;92.38;87.53;;;8.70;99.90;;;;;;4986865;28;20124;-75
2023/05/29 04:05:14;;;;;;;91.50;86.82;;;8.80;99.90;;;;;;4968651;28;20043;-76
2023/05/29 04:07:39;;;;;;;83.32;79.10;;;8.90;99.90;;;;;;4970670;28;20049;-75
2023/05/29 04:10:06;;;;;;;76.18;71.95;;;8.90;99.90;;;;;;4985279;28;20069;-76
2023/05/29 04:12:32;;;;;;;67.45;63.15;;;9.00;99.90;;;;;;4969680;28;20034;-75
2023/05/29 04:14:58;;;;;;;63.97;60.47;;;9.00;99.90;;;;;;4985526;28;20140;-75
2023/05/29 04:17:24;;;;;;;57.95;54.40;;;9.10;99.90;;;;;;5002469;28;20573;-76
2023/05/29 04:19:50;;;;;;;56.72;52.92;;;9.20;99.90;;;;;;4970169;28;20600;-75
2023/05/29 04:22:15;;;;;;;49.25;45.95;;;9.30;99.90;;;;;;4986053;28;20048;-76
2023/05/29 04:24:44;;;;;;;56.58;53.05;;;9.40;99.90;;;;;;4986450;28;20084;-76
2023/05/29 04:27:12;;;;;;;59.58;55.88;;;9.40;99.90;;;;;;4986300;28;20046;-75
2023/05/29 04:29:40;;;;;;;59.70;55.95;;;9.50;99.90;;;;;;4985052;28;20145;-75
2023/05/29 04:32:08;;;;;;;57.90;54.10;;;9.60;99.90;;;;;;4983967;28;20449;-76
2023/05/29 04:34:34;;;;;;;51.78;48.58;;;9.70;99.90;;;;;;4985502;28;20053;-76
2023/05/29 04:37:00;;;;;;;48.55;45.67;;;9.80;99.90;;;;;;4988593;28;20042;-77
2023/05/29 04:39:25;;;;;;;48.80;46.10;;;9.80;99.90;;;;;;4986343;28;20387;-75
2023/05/29 04:41:51;;;;;;;52.00;48.67;;;9.80;99.90;;;;;;4985225;28;20135;-76
2023/05/29 04:44:17;;;;;;;52.58;49.42;;;9.90;99.90;;;;;;4987489;28;20038;-75
2023/05/29 04:46:44;;;;;;;52.50;49.45;;;9.90;99.90;;;;;;4985055;28;20046;-76
2023/05/29 04:49:12;;;;;;;51.17;48.08;;;9.90;99.90;;;;;;4986060;28;20117;-76
2023/05/29 04:51:40;;;;;;;52.90;49.67;;;9.90;99.90;;;;;;4984117;28;20041;-75
2023/05/29 04:54:06;;;;;;;54.97;51.45;;;9.90;99.90;;;;;;4985808;28;20049;-75
2023/05/29 04:56:32;;;;;;;50.33;47.03;;;10.00;99.90;;;;;;4983814;28;20064;-76
2023/05/29 04:58:58;;;;;;;50.17;46.83;;;10.00;99.90;;;;;;4985582;28;20035;-78
2023/05/29 05:01:25;;;;;;;77.45;73.38;;;10.10;99.90;;;;;;4984149;28;20050;-76
2023/05/29 05:03:54;;;;;;;55.90;52.30;;;10.20;99.90;;;;;;5005515;28;20050;-77
2023/05/29 05:06:19;;;;;;;59.78;56.33;;;10.30;99.90;;;;;;4984881;28;20050;-77
2023/05/29 05:08:45;;;;;;;55.90;52.50;;;10.40;99.90;;;;;;4983911;28;20084;-77
2023/05/29 05:11:11;;;;;;;60.10;56.90;;;10.40;99.90;;;;;;4984544;28;20097;-76
2023/05/29 05:13:36;;;;;;;61.65;57.78;;;10.50;99.90;;;;;;4981662;28;20034;-75
2023/05/29 05:16:02;;;;;;;68.75;64.45;;;10.50;99.90;;;;;;4984519;28;20034;-76
2023/05/29 05:18:28;;;;;;;61.85;58.05;;;10.60;99.90;;;;;;4986198;28;20053;-77
2023/05/29 05:20:54;;;;;;;67.43;63.53;;;10.70;99.90;;;;;;4984517;28;20045;-75
2023/05/29 05:23:20;;;;;;;67.95;64.10;;;10.70;99.90;;;;;;4983845;28;20050;-77
2023/05/29 05:25:45;;;;;;;70.57;66.35;;;10.80;99.90;;;;;;4983343;28;20038;-77
2023/05/29 05:28:11;;;;;;;76.90;72.90;;;10.80;99.90;;;;;;4984814;28;20042;-75
2023/05/29 05:30:37;;;;;;;73.47;69.53;;;10.90;99.90;;;;;;4984074;28;20057;-78
2023/05/29 05:33:03;;;;;;;78.05;74.10;;;10.90;99.90;;;;;;4985831;28;20479;-76
2023/05/29 05:35:29;;;;;;;76.03;71.63;;;11.00;99.90;;;;;;4982345;28;20143;-75
2023/05/29 05:37:57;;;;;;;71.30;67.07;;;11.10;99.90;;;;;;4982007;28;20078;-77
2023/05/29 05:40:25;;;;;;;73.82;69.57;;;11.20;99.90;;;;;;4983068;28;20054;-76
2023/05/29 05:42:51;;;;;;;78.05;73.70;;;11.40;99.90;;;;;;4999718;28;20053;-75
2023/05/29 05:45:16;;;;;;;70.78;66.45;;;11.50;99.90;;;;;;4986965;28;20042;-75
2023/05/29 05:47:42;;;;;;;74.22;69.72;;;11.60;99.90;;;;;;4984078;28;20150;-77
2023/05/29 05:50:08;;;;;;;50.88;47.45;;;11.70;99.90;;;;;;4990230;28;20038;-76
2023/05/29 05:52:34;;;;;;;49.75;46.35;;;11.70;99.90;;;;;;4989152;28;20513;-77
2023/05/29 05:55:00;;;;;;;48.30;44.80;;;11.80;99.90;;;;;;4986735;28;20031;-76
2023/05/29 05:57:26;;;;;;;48.90;45.88;;;11.80;99.90;;;;;;4987183;28;20518;-78
2023/05/29 05:59:52;;;;;;;47.10;44.17;;;11.90;99.90;;;;;;4977090;28;20113;-77
2023/05/29 06:02:18;;;;;;;37.88;35.40;;;11.90;99.90;;;;;;4979672;28;20585;-76
2023/05/29 06:04:43;;;;;;;40.88;37.72;;;11.90;99.90;;;;;;4976088;28;20046;-78
2023/05/29 06:07:09;;;;;;;48.25;44.90;;;12.00;99.90;;;;;;4983445;28;20701;-76
2023/05/29 06:09:35;;;;;;;41.33;38.30;;;12.00;99.90;;;;;;4982861;28;20599;-76
2023/05/29 06:12:01;;;;;;;39.67;36.88;;;12.10;99.90;;;;;;4988517;28;20129;-76
2023/05/29 06:14:27;;;;;;;37.13;33.67;;;12.40;99.90;;;;;;4983303;28;20046;-77
2023/05/29 06:16:53;;;;;;;38.40;35.42;;;12.70;99.90;;;;;;4986985;28;20038;-77
2023/05/29 06:19:19;;;;;;;36.40;33.42;;;13.00;99.90;;;;;;4958321;28;20047;-77
2023/05/29 06:21:44;;;;;;;34.53;31.90;;;13.20;99.90;;;;;;4987126;28;20107;-77
2023/05/29 06:24:10;;;;;;;36.00;33.22;;;13.50;99.90;;;;;;4972094;28;20046;-78
2023/05/29 06:26:37;;;;;;;33.10;30.10;;;13.90;99.90;;;;;;4987518;28;20494;-76
2023/05/29 06:29:03;;;;;;;29.35;26.90;;;14.20;99.90;;;;;;4989122;28;20056;-80
2023/05/29 06:31:28;;;;;;;31.20;28.20;;;14.50;99.90;;;;;;4987675;28;20369;-81
2023/05/29 06:33:54;;;;;;;32.90;30.20;;;14.70;99.90;;;;;;4971218;28;20045;-78
2023/05/29 06:36:21;;;;;;;24.45;22.10;;;14.50;99.90;;;;;;4988379;28;20042;-80
2023/05/29 06:38:50;;;;;;;26.08;23.55;;;14.30;99.90;;;;;;4989159;28;20042;-77
2023/05/29 06:41:16;;;;;;;27.42;24.52;;;14.10;99.90;;;;;;4993415;28;20287;-77
2023/05/29 06:43:42;;;;;;;31.30;28.90;;;14.30;99.90;;;;;;4986883;28;20096;-78
2023/05/29 06:46:08;;;;;;;56.08;51.97;;;14.50;99.90;;;;;;4972264;28;20055;-76
2023/05/29 06:48:34;;;;;;;45.15;42.00;;;14.40;99.90;;;;;;4988162;28;20054;-76
2023/05/29 06:51:00;;;;;;;38.15;35.47;;;14.00;99.90;;;;;;4988208;28;20401;-77
2023/05/29 06:53:26;;;;;;;45.85;42.92;;;13.70;99.90;;;;;;4972631;28;20038;-76
2023/05/29 06:55:53;;;;;;;51.42;47.63;;;13.50;99.90;;;;;;4984857;28;20076;-77
2023/05/29 06:58:18;;;;;;;57.75;53.95;;;13.40;99.90;;;;;;4986538;28;20572;-77
2023/05/29 07:00:44;;;;;;;62.53;58.20;;;13.30;99.90;;;;;;4971052;28;20038;-80
2023/05/29 07:03:10;;;;;;;68.60;64.15;;;13.40;99.90;;;;;;4984098;28;20100;-77
2023/05/29 07:05:36;;;;;;;52.55;48.55;;;13.50;99.90;;;;;;4981337;28;20410;-76
2023/05/29 07:08:01;;;;;;;49.33;46.08;;;13.50;99.90;;;;;;4986197;28;20041;-77
2023/05/29 07:10:27;;;;;;;71.68;67.28;;;13.60;99.90;;;;;;4983957;28;20381;-77
2023/05/29 07:12:53;;;;;;;50.08;46.63;;;13.90;99.90;;;;;;4981543;28;20042;-79
2023/05/29 07:15:18;;;;;;;46.22;43.30;;;14.10;99.90;;;;;;4980763;28;20054;-78
2023/05/29 07:17:44;;;;;;;53.05;49.05;;;14.20;99.90;;;;;;4977317;28;20407;-77
2023/05/29 07:20:10;;;;;;;50.08;46.85;;;14.00;99.90;;;;;;4987044;28;20038;-76
2023/05/29 07:22:36;;;;;;;50.88;47.25;;;13.90;99.90;;;;;;4985475;28;20038;-76
2023/05/29 07:25:03;;;;;;;47.20;43.75;;;13.90;99.90;;;;;;4965504;28;20034;-78
2023/05/29 07:27:29;;;;;;;41.72;38.30;;;14.20;99.90;;;;;;4983276;28;20050;-78
2023/05/29 07:29:54;;;;;;;45.78;42.13;;;14.50;99.90;;;;;;4987510;28;20042;-77
2023/05/29 07:32:21;;;;;;;38.15;35.05;;;14.50;99.90;;;;;;4988037;28;20049;-77
2023/05/29 07:34:49;;;;;;;37.53;34.00;;;14.40;99.90;;;;;;4982255;28;20577;-78
2023/05/29 07:37:15;;;;;;;39.70;36.67;;;14.40;99.90;;;;;;4994408;28;20380;-80
2023/05/29 07:39:42;;;;;;;39.95;36.83;;;14.30;99.90;;;;;;4969221;28;20049;-77
2023/05/29 07:42:08;;;;;;;40.58;37.72;;;14.40;99.90;;;;;;4983179;28;20120;-79
2023/05/29 07:44:33;;;;;;;45.00;41.75;;;14.70;99.90;;;;;;4964775;28;20046;-79
2023/05/29 07:46:59;;;;;;;42.38;38.60;;;14.90;99.90;;;;;;4991270;28;20482;-78
2023/05/29 07:49:24;;;;;;;38.72;36.13;;;15.30;99.90;;;;;;4985686;28;20053;-76
2023/05/29 07:51:50;;;;;;;29.90;27.17;;;15.50;99.90;;;;;;4986008;28;20513;-75
2023/05/29 07:54:18;;;;;;;34.88;31.98;;;15.70;99.90;;;;;;4985252;28;20559;-76
2023/05/29 07:56:44;;;;;;;24.75;22.45;;;15.90;99.90;;;;;;4977347;28;20053;-75
2023/05/29 07:59:10;;;;;;;36.38;33.08;;;16.10;99.90;;;;;;4974007;28;20498;-76
2023/05/29 08:01:36;;;;;;;24.25;22.00;;;16.00;99.90;;;;;;4988476;28;20156;-74
2023/05/29 08:04:02;;;;;;;31.17;28.50;;;15.70;99.90;;;;;;4986972;28;20050;-75
2023/05/29 08:06:27;;;;;;;26.70;24.38;;;15.60;99.90;;;;;;4985884;28;20084;-74
2023/05/29 08:08:53;;;;;;;41.08;37.78;;;15.60;99.90;;;;;;4986894;28;20084;-78
2023/05/29 08:11:19;;;;;;;24.42;22.15;;;15.40;99.90;;;;;;4987149;28;20084;-79
2023/05/29 08:13:45;;;;;;;30.45;27.85;;;15.40;99.90;;;;;;4985529;28;20121;-78
2023/05/29 08:16:14;;;;;;;21.52;19.30;;;15.50;99.90;;;;;;4984701;28;20042;-80
2023/05/29 08:18:39;;;;;;;30.05;27.35;;;15.50;99.90;;;;;;4984073;28;20088;-76
2023/05/29 08:21:05;;;;;;;24.63;22.00;;;15.50;99.90;;;;;;4986810;28;20073;-76
2023/05/29 08:23:31;;;;;;;27.30;24.95;;;15.40;99.90;;;;;;4979549;28;20507;-77
2023/05/29 08:25:57;;;;;;;26.70;21.10;;;15.40;99.90;;;;;;4983838;28;20038;-74
2023/05/29 08:28:22;;;;;;;27.15;24.63;;;15.30;99.90;;;;;;4985341;28;20132;-74
2023/05/29 08:30:48;;;;;;;34.53;31.88;;;15.30;99.90;;;;;;4961990;28;20043;-76
2023/05/29 08:33:14;;;;;;;25.33;22.92;;;15.40;99.90;;;;;;4986160;28;20559;-75
2023/05/29 08:35:39;;;;;;;22.92;20.67;;;15.50;99.90;;;;;;4986396;28;20117;-75
2023/05/29 08:38:06;;;;;;;24.02;21.50;;;15.60;99.90;;;;;;5009388;28;20476;-75
2023/05/29 08:40:31;;;;;;;23.88;21.35;;;15.70;99.90;;;;;;4987006;28;20117;-78
2023/05/29 08:43:20;;;;;;;32.17;29.25;;;15.60;99.90;;;;;;4985007;28;20506;-75
2023/05/29 08:45:52;;;;;;;21.70;18.50;;;15.50;99.90;;;;;;4986596;28;20096;-75
2023/05/29 08:48:22;;;;;;;28.92;26.08;;;15.50;99.90;;;;;;4985103;28;20061;-75
2023/05/29 08:50:49;;;;;;;28.65;23.67;;;15.60;99.90;;;;;;4981154;28;20422;-76
2023/05/29 08:53:16;;;;;;;29.35;26.65;;;15.50;99.90;;;;;;4986542;28;20046;-73
2023/05/29 08:55:42;;;;;;;23.08;20.88;;;15.40;99.90;;;;;;4982696;28;20039;-77
2023/05/29 08:58:09;;;;;;;30.67;27.70;;;15.40;99.90;;;;;;4985343;28;20042;-76
2023/05/29 09:00:35;;;;;;;27.35;25.05;;;15.30;99.90;;;;;;4970407;28;20398;-78
2023/05/29 09:03:01;;;;;;;33.20;30.48;;;15.10;99.90;;;;;;4968889;28;20046;-79
2023/05/29 09:05:27;;;;;;;33.90;31.40;;;14.90;99.90;;;;;;4985360;28;20050;-76
2023/05/29 09:07:53;;;;;;;34.83;31.77;;;14.70;99.90;;;;;;4985610;28;20042;-78
2023/05/29 09:10:20;;;;;;;37.42;34.47;;;14.60;99.90;;;;;;4985181;28;20406;-78
2023/05/29 09:12:46;;;;;;;33.45;30.58;;;14.50;99.90;;;;;;4986535;28;20121;-79
2023/05/29 09:15:20;;;;;;;32.00;29.23;;;14.50;99.90;;;;;;4985691;28;20469;-77
2023/05/29 09:17:54;;;;;;;34.53;31.42;;;14.50;99.90;;;;;;4987714;28;20046;-78
2023/05/29 09:20:24;;;;;;;31.80;28.95;;;14.50;99.90;;;;;;4988346;28;20506;-79
2023/05/29 09:22:56;;;;;;;34.70;31.70;;;14.60;99.90;;;;;;4987536;28;20030;-77
2023/05/29 09:25:27;;;;;;;31.20;28.60;;;14.80;99.90;;;;;;4992382;28;20568;-76
2023/05/29 09:27:59;;;;;;;32.92;30.42;;;14.90;99.90;;;;;;4973964;28;20129;-79
2023/05/29 09:30:42;;;;;;;27.25;24.45;;;15.00;99.90;;;;;;4985873;28;20042;-80
2023/05/29 09:33:13;;;;;;;32.55;29.60;;;15.00;99.90;;;;;;4973669;28;20038;-76
2023/05/29 09:35:43;;;;;;;30.20;27.80;;;15.10;99.90;;;;;;4989087;28;20070;-78
2023/05/29 09:38:11;;;;;;;52.65;49.30;;;15.30;99.90;;;;;;4997739;28;20060;-77
2023/05/29 09:40:38;;;;;;;27.95;25.80;;;15.50;99.90;;;;;;4990814;28;20042;-74
2023/05/29 09:43:17;;;;;;;29.67;27.02;;;15.90;99.90;;;;;;4988622;28;20046;-74
2023/05/29 09:45:48;;;;;;;23.90;17.83;;;16.00;99.90;;;;;;4987203;28;20503;-78
2023/05/29 09:48:25;;;;;;;26.67;21.45;;;16.20;99.90;;;;;;4988555;28;20069;-78
2023/05/29 09:50:51;;;;;;;23.48;18.38;;;16.10;99.90;;;;;;5002202;28;20049;-75
2023/05/29 09:53:24;;;;;;;24.40;22.00;;;15.90;99.90;;;;;;4973669;28;20120;-78
2023/05/29 09:55:50;;;;;;;24.70;19.10;;;15.90;99.90;;;;;;4989175;28;20038;-76
2023/05/29 09:58:20;;;;;;;23.73;19.55;;;15.90;99.90;;;;;;4985430;28;20038;-80
2023/05/29 10:00:51;;;;;;;24.48;22.20;;;15.90;99.90;;;;;;4985647;28;20463;-74
2023/05/29 10:03:17;;;;;;;34.85;32.28;;;15.90;99.90;;;;;;4986490;28;20062;-73
2023/05/29 10:05:48;;;;;;;26.23;23.70;;;15.80;99.90;;;;;;4986933;28;20507;-76
2023/05/29 10:08:17;;;;;;;24.83;21.67;;;15.90;99.90;;;;;;4989430;28;20089;-76
2023/05/29 10:10:47;;;;;;;31.70;28.83;;;16.10;99.90;;;;;;4989085;28;20307;-75
2023/05/29 10:13:14;;;;;;;27.60;24.88;;;16.20;99.90;;;;;;4986827;28;20078;-76
2023/05/29 10:15:45;;;;;;;34.75;31.98;;;16.30;99.90;;;;;;4988682;28;20081;-78
2023/05/29 10:18:20;;;;;;;44.05;40.97;;;16.50;99.90;;;;;;4989152;28;20031;-76
2023/05/29 10:20:51;;;;;;;46.30;42.83;;;16.70;99.90;;;;;;4988082;28;20400;-76
2023/05/29 10:23:18;;;;;;;40.70;37.25;;;16.80;99.90;;;;;;4987041;28;20046;-77
2023/05/29 10:25:46;;;;;;;51.33;47.92;;;16.80;99.90;;;;;;4987733;28;20049;-75
2023/05/29 10:28:12;;;;;;;32.95;30.27;;;16.70;99.90;;;;;;4986737;28;20101;-77
2023/05/29 10:30:52;;;;;;;40.90;37.85;;;16.60;99.90;;;;;;4985309;28;20046;-76
2023/05/29 10:33:32;;;;;;;49.20;45.92;;;16.70;99.90;;;;;;4987016;28;20093;-75
2023/05/29 10:36:21;;;;;;;38.40;35.78;;;16.70;99.90;;;;;;4986771;28;20406;-78
2023/05/29 10:38:48;;;;;;;58.15;54.35;;;16.70;99.90;;;;;;4984182;28;20129;-76
2023/05/29 10:41:26;;;;;;;43.35;40.00;;;16.80;99.90;;;;;;4986036;28;20050;-76
2023/05/29 10:43:56;;;;;;;40.95;37.65;;;16.70;99.90;;;;;;4984987;28;20494;-76
2023/05/29 10:46:42;;;;;;;37.92;34.95;;;16.90;99.90;;;;;;4983885;28;20115;-77
2023/05/29 10:49:16;;;;;;;39.20;36.47;;;17.10;99.90;;;;;;4985506;28;20046;-76
2023/05/29 10:51:41;;;;;;;;;;;17.20;99.90;;;;;;4987565;28;20491;-76
2023/05/29 10:54:07;;;;;;;39.53;36.92;;;17.40;99.90;;;;;;4985386;28;19929;-75
2023/05/29 10:56:33;;;;;;;57.42;53.70;;;17.70;99.90;;;;;;4986163;28;20050;-75
2023/05/29 10:59:01;;;;;;;86.60;80.82;;;17.70;99.90;;;;;;4987151;28;20406;-79
2023/05/29 11:01:29;;;;;;;38.95;35.95;;;17.80;99.30;;;;;;5002139;28;20066;-78
2023/05/29 11:04:21;;;;;;;29.15;26.60;;;17.80;97.10;;;;;;4984780;28;20070;-75
2023/05/29 11:06:47;;;;;;;40.50;37.58;;;17.70;98.50;;;;;;4985587;28;20164;-78
2023/05/29 11:09:37;;;;;;;36.75;33.92;;;17.60;98.30;;;;;;4985933;28;20046;-77
2023/05/29 11:12:32;;;;;;;61.30;57.05;;;17.50;97.90;;;;;;4986581;28;20104;-78
2023/05/29 11:15:13;;;;;;;42.35;39.20;;;17.40;97.80;;;;;;4984171;28;20061;-76
2023/05/29 11:17:39;;;;;;;54.28;50.90;;;17.30;96.80;;;;;;4986278;28;20145;-76
2023/05/29 11:20:06;;;;;;;24.63;22.27;;;17.00;97.40;;;;;;4983900;28;20122;-78
2023/05/29 11:22:59;;;;;;;26.52;24.38;;;16.70;97.60;;;;;;4982712;28;20053;-78
2023/05/29 11:25:32;;;;;;;42.88;39.75;;;16.50;98.20;;;;;;4984289;28;20464;-76
2023/05/29 11:27:58;;;;;;;37.00;34.30;;;16.60;99.20;;;;;;4986580;28;20042;-78
2023/05/29 11:30:24;;;;;;;40.60;37.50;;;16.70;98.70;;;;;;4986766;28;20574;-78
2023/05/29 11:32:52;;;;;;;38.13;35.40;;;16.90;99.60;;;;;;4985771;28;20034;-78
2023/05/29 11:35:21;;;;;;;28.98;26.48;;;17.10;99.10;;;;;;4986007;28;20086;-75
2023/05/29 11:37:47;;;;;;;55.50;52.17;;;17.20;97.90;;;;;;4988828;28;20043;-75
2023/05/29 11:40:14;;;;;;;40.50;37.70;;;17.30;98.60;;;;;;4987691;28;20045;-75
2023/05/29 11:42:44;;;;;;;57.22;53.80;;;17.50;98.10;;;;;;4987718;28;20473;-73
2023/05/29 11:45:19;;;;;;;85.10;80.65;;;17.60;97.40;;;;;;4986585;28;20043;-76
2023/05/29 11:47:55;;;;;;;139.75;133.13;;;17.60;96.60;;;;;;4968946;28;20042;-77
2023/05/29 11:50:23;;;;;;;65.78;61.88;;;17.80;96.90;;;;;;4967814;28;20127;-79
2023/05/29 11:52:49;;;;;;;172.27;164.23;;;18.00;97.60;;;;;;4985372;28;20038;-76
2023/05/29 11:55:14;;;;;;;51.05;47.60;;;18.20;96.80;;;;;;4985612;28;20045;-76
2023/05/29 11:57:40;;;;;;;55.28;51.28;;;18.20;97.50;;;;;;4984894;28;20042;-75
2023/05/29 12:00:07;;;;;;;56.78;53.30;;;18.30;96.70;;;;;;4989623;28;20062;-75
2023/05/29 12:02:33;;;;;;;135.25;128.27;;;18.40;97.00;;;;;;4984862;28;20490;-75
2023/05/29 12:05:08;;;;;;;94.35;89.53;;;18.50;97.10;;;;;;4984024;28;20129;-78
2023/05/29 12:07:35;;;;;;;125.07;118.68;;;18.50;96.90;;;;;;4967937;28;20148;-78
2023/05/29 12:10:11;;;;;;;108.10;102.63;;;18.40;96.10;;;;;;4984960;28;20053;-78
2023/05/29 12:12:39;;;;;;;119.40;113.10;;;18.30;96.50;;;;;;4968790;28;20399;-79
2023/05/29 12:15:06;;;;;;;74.07;70.03;;;18.40;96.50;;;;;;4985771;28;20034;-78
2023/05/29 12:17:35;;;;;;;99.72;94.90;;;18.30;94.30;;;;;;4984914;28;20074;-78
2023/05/29 12:20:03;;;;;;;94.63;89.65;;;18.10;94.50;;;;;;4985623;28;20073;-77
2023/05/29 12:22:37;;;;;;;80.50;76.18;;;18.00;95.10;;;;;;4982021;28;20418;-75
2023/05/29 12:25:09;;;;;;;86.80;81.85;;;17.80;94.30;;;;;;4981010;28;20418;-78
2023/05/29 12:27:41;;;;;;;106.00;100.32;;;17.70;95.50;;;;;;4968901;28;20054;-76
2023/05/29 12:30:08;;;;;;;126.60;120.28;;;17.70;96.00;;;;;;4998786;28;20137;-76